Ceuta, Spain

6:54 AM CEST en Agosto 30, 2016 (GMT +0200)
Urbanización Parque Golf | | Change Station

Alt 19 ft 36.12 °N, 5.44 °W | Updated 1 minute ago

Scattered Clouds
Nubes dispersas
77.2 ° F
Sensación térmica 79 ° F
N
0.6
Viento Variable Viento desde Oeste
Gusts 1.9 mph

Hoy
Alta -- | Baja -- ° F
--% Posibilidad de precipitaciones
Ayer
Alta -- | Baja -- ° F
Precip. -- pul
Presión 30.01 pul
Visibilidad 6.2 Millas
Nubes Baja 1600 ft
Nubes dispersas 10000 ft
Índice de calor 79 ° F
Punto de rocío 69 ° F
Humedad 76%
Precipitaciones 0.00 pul
Espesor de la nieve No disponible.
7:51 AM 8:51 PM
Creciente menguante, 5% visible
METAR GMTT 300430Z 21006KT 9999 FEW016 SCT100 21/18 Q1016 NOSIG
Presión 30.01 pul
Visibilidad 6.2 Millas
Nubes Baja 1600 ft
Nubes dispersas 10000 ft
Índice de calor 79 ° F
Punto de rocío 69 ° F
Humedad 76%
Precipitaciones 0.00 pul
Espesor de la nieve No disponible.
7:51 AM 8:51 PM
Creciente menguante, 5% visible
METAR GMTT 300430Z 21006KT 9999 FEW016 SCT100 21/18 Q1016 NOSIG

10-Day Weather Forecast

×

Almanac

Astronomía

Aug. 30, 2016 Salida Puesta
Hora real
Crepúsculo civil
Crepúsculo náutico
Crepúsculo astronómico
Luna
Horas de luz
Horas de luz
Tomorrow will be .
, % of the Moon is Illuminated

Extremos de hoy

Máximos del país Bajas del país

Community

WunderPhotos

Upload Photos

1,935,791 ¡fotos cargadas!

WunderBlog® & News

Nearby

Calidad del aire

  Calidad del aire Índice AQ Contaminante
Not available.

Grosos de nieve

Estación Profundido Altura

Actividad de terremotos

Ciudad Distance Mag. Tiempo y dato
Magnitud mínima muestra es 2,5.

Temperaturas de aguas costeras

Lugar Temperatura

Stations

Estaciones meteorológicas cercanas

Ubicación de la estación Temp. Vientos helados Punto de rocío Humedad Viento Precip. Alt Actualizado Tipo